createdAt,value
2023-05-03T00:00:36.163Z,41.84
2023-05-03T00:05:29.315Z,42.61
2023-05-03T00:10:22.633Z,43.16
2023-05-03T00:15:15.885Z,44.46
2023-05-03T00:20:12.157Z,46.59
2023-05-03T00:25:05.943Z,48.30
2023-05-03T00:29:59.197Z,50.39
2023-05-03T00:34:55.052Z,52.49
2023-05-03T00:39:49.957Z,53.67
2023-05-03T00:44:43.535Z,54.26
2023-05-03T00:49:37.108Z,54.68
2023-05-03T00:54:33.111Z,55.45
2023-05-03T00:59:27.984Z,56.64
2023-05-03T01:04:21.918Z,57.46
2023-05-03T01:09:22.592Z,58.42
2023-05-03T01:14:29.623Z,59.13
2023-05-03T01:19:32.389Z,59.84
2023-05-03T01:24:27.532Z,60.00
2023-05-03T01:29:22.061Z,60.42
2023-05-03T01:34:24.722Z,60.94
2023-05-03T01:39:22.317Z,61.38
2023-05-03T01:44:16.950Z,61.85
2023-05-03T01:49:11.689Z,61.57
2023-05-03T01:54:04.955Z,61.60
2023-05-03T01:58:58.160Z,61.64
2023-05-03T02:03:51.322Z,63.43
2023-05-03T02:08:46.102Z,63.21
2023-05-03T02:13:39.550Z,63.86
2023-05-03T02:18:33.770Z,64.00
2023-05-03T02:23:26.839Z,62.88
2023-05-03T02:28:21.987Z,62.04
2023-05-03T02:33:15.707Z,62.79
2023-05-03T02:38:08.917Z,62.97
2023-05-03T02:43:04.024Z,62.63
2023-05-03T02:47:59.608Z,62.32
2023-05-03T02:52:53.684Z,62.87
2023-05-03T02:57:47.002Z,63.33
2023-05-03T03:02:44.610Z,63.90
2023-05-03T03:07:40.355Z,64.25
2023-05-03T03:12:35.179Z,64.82
2023-05-03T03:17:30.721Z,65.50
2023-05-03T03:22:23.957Z,66.01
2023-05-03T03:27:18.551Z,66.19
2023-05-03T03:32:11.783Z,66.44
2023-05-03T03:37:07.088Z,66.86
2023-05-03T03:42:03.138Z,66.49
2023-05-03T03:47:00.837Z,66.65
2023-05-03T03:51:54.202Z,67.14
2023-05-03T03:56:47.453Z,67.24
2023-05-03T04:01:43.828Z,67.60
2023-05-03T04:06:39.374Z,68.54
2023-05-03T04:11:37.017Z,68.51
2023-05-03T04:16:33.434Z,68.26
2023-05-03T04:21:29.508Z,67.69
2023-05-03T04:26:31.955Z,68.46
2023-05-03T04:31:43.863Z,67.50
2023-05-03T04:36:40.241Z,67.54
2023-05-03T04:41:37.036Z,67.55
2023-05-03T04:46:33.063Z,67.11
2023-05-03T04:51:30.361Z,66.58
2023-05-03T04:56:26.881Z,66.11
2023-05-03T05:01:29.956Z,65.78
2023-05-03T05:06:27.533Z,65.69
2023-05-03T05:11:22.388Z,65.86
2023-05-03T05:16:15.892Z,65.45
2023-05-03T05:21:16.528Z,65.28
2023-05-03T05:26:10.160Z,64.77
2023-05-03T05:31:06.619Z,64.07
2023-05-03T05:36:00.591Z,63.71
2023-05-03T05:40:55.969Z,63.18
2023-05-03T05:45:50.447Z,62.54
2023-05-03T05:50:44.566Z,62.28
2023-05-03T05:55:39.824Z,62.24
2023-05-03T06:00:36.356Z,61.40
2023-05-03T06:05:29.622Z,61.45
2023-05-03T06:10:23.006Z,61.46
2023-05-03T06:15:19.292Z,62.04
2023-05-03T06:20:14.155Z,61.81
2023-05-03T06:25:09.791Z,61.46
2023-05-03T06:30:06.680Z,60.53
2023-05-03T06:35:02.397Z,60.63
2023-05-03T06:39:58.018Z,60.69
2023-05-03T06:44:51.339Z,61.34
2023-05-03T06:49:44.820Z,61.73
2023-05-03T06:54:48.648Z,62.00
2023-05-03T06:59:43.457Z,60.77
2023-05-03T07:04:37.943Z,60.36
2023-05-03T07:09:42.619Z,60.57
2023-05-03T07:14:43.756Z,59.98
2023-05-03T07:19:39.914Z,59.54
2023-05-03T07:24:41.265Z,58.33
2023-05-03T07:29:38.977Z,58.76
2023-05-03T07:34:32.935Z,58.33
2023-05-03T07:39:27.799Z,56.95
2023-05-03T07:44:20.935Z,56.55
2023-05-03T07:49:17.523Z,56.79
2023-05-03T07:54:11.152Z,56.40
2023-05-03T07:59:10.104Z,55.23
2023-05-03T08:04:05.084Z,54.00
2023-05-03T08:09:07.881Z,51.65
2023-05-03T08:14:04.319Z,51.06
2023-05-03T08:18:58.922Z,48.93
2023-05-03T08:23:52.254Z,48.14
2023-05-03T08:28:45.481Z,45.18
2023-05-03T08:33:39.136Z,43.12
2023-05-03T08:38:36.690Z,39.51
2023-05-03T08:43:30.769Z,37.56
2023-05-03T08:48:24.283Z,36.05
2023-05-03T08:53:17.574Z,36.18
2023-05-03T08:58:13.331Z,34.92
2023-05-03T09:03:08.603Z,34.43
2023-05-03T09:08:03.401Z,32.89
2023-05-03T09:13:01.278Z,33.53
2023-05-03T09:18:15.959Z,31.34
2023-05-03T09:23:10.174Z,32.44
2023-05-03T09:28:05.162Z,32.98
2023-05-03T09:32:58.409Z,34.01
2023-05-03T09:37:52.995Z,33.41
2023-05-03T09:43:06.878Z,33.19
2023-05-03T09:48:00.801Z,33.93
2023-05-03T09:52:57.720Z,32.99
2023-05-03T09:57:51.384Z,32.59
2023-05-03T10:02:48.231Z,32.57
2023-05-03T10:07:43.505Z,33.72
2023-05-03T10:12:59.985Z,32.73
2023-05-03T10:18:00.282Z,32.86
2023-05-03T10:23:22.357Z,31.92
2023-05-03T10:28:20.044Z,32.41
2023-05-03T10:33:35.026Z,32.53
2023-05-03T10:38:30.242Z,32.82
2023-05-03T10:43:52.147Z,32.94
2023-05-03T10:49:20.964Z,32.57
2023-05-03T10:54:14.504Z,33.54
2023-05-03T10:59:09.123Z,33.91
2023-05-03T11:04:09.466Z,33.96
2023-05-03T11:09:07.860Z,34.26
2023-05-03T11:14:04.525Z,34.74
2023-05-03T11:19:01.378Z,31.78
2023-05-03T11:23:57.206Z,30.05
2023-05-03T11:28:52.337Z,29.34
2023-05-03T11:33:47.982Z,28.62
2023-05-03T11:38:47.240Z,27.31
2023-05-03T11:43:42.721Z,27.72
2023-05-03T11:48:40.488Z,29.03
2023-05-03T11:53:34.846Z,29.77
2023-05-03T11:58:32.334Z,31.30
2023-05-03T12:03:31.369Z,31.96
2023-05-03T12:08:31.385Z,32.96
2023-05-03T12:13:37.078Z,32.54
2023-05-03T12:18:47.747Z,32.87
2023-05-03T12:23:41.787Z,33.52
2023-05-03T12:28:36.667Z,33.25
2023-05-03T12:33:31.642Z,33.47
2023-05-03T12:38:30.668Z,34.93
2023-05-03T12:43:24.852Z,34.89
2023-05-03T12:48:25.048Z,31.64
2023-05-03T12:53:19.334Z,29.62
2023-05-03T12:58:43.171Z,27.32
2023-05-03T13:03:32.792Z,26.12
2023-05-03T13:08:33.573Z,25.74
2023-05-03T13:13:28.751Z,24.43
2023-05-03T13:18:30.627Z,25.14
2023-05-03T13:23:27.997Z,25.40
2023-05-03T13:28:26.377Z,24.97
2023-05-03T13:33:20.617Z,23.08
2023-05-03T13:38:14.470Z,22.37
2023-05-03T13:43:13.108Z,21.45
2023-05-03T13:48:17.639Z,21.12
2023-05-03T13:53:16.920Z,20.85
2023-05-03T13:58:12.117Z,19.85
2023-05-03T14:03:07.320Z,19.02
2023-05-03T14:08:08.111Z,19.10
2023-05-03T14:13:11.561Z,19.32
2023-05-03T14:18:07.995Z,18.92
2023-05-03T14:23:07.695Z,18.77
2023-05-03T14:28:01.040Z,18.75
2023-05-03T14:32:54.254Z,19.43
2023-05-03T14:37:49.089Z,20.63
2023-05-03T14:42:48.974Z,22.05
2023-05-03T14:47:42.745Z,23.87
2023-05-03T14:52:36.956Z,24.39
2023-05-03T14:57:32.433Z,24.75
2023-05-03T15:02:25.934Z,25.69
2023-05-03T15:07:22.517Z,26.51
2023-05-03T15:12:16.088Z,26.60
2023-05-03T15:17:17.583Z,27.00
2023-05-03T15:22:20.099Z,27.29
2023-05-03T15:27:13.552Z,27.49
2023-05-03T15:32:07.125Z,27.55
2023-05-03T15:37:01.829Z,27.66
2023-05-03T15:41:55.076Z,28.11
2023-05-03T15:46:48.510Z,28.32
2023-05-03T15:51:42.014Z,28.98
2023-05-03T15:56:37.871Z,29.24
2023-05-03T16:01:31.312Z,29.14
2023-05-03T16:06:24.573Z,28.68
2023-05-03T16:11:17.822Z,28.72
2023-05-03T16:16:13.816Z,28.83
2023-05-03T16:21:07.334Z,28.90
2023-05-03T16:26:01.218Z,29.15
2023-05-03T16:30:54.401Z,29.77
2023-05-03T16:35:50.190Z,30.43
2023-05-03T16:40:43.661Z,31.02
2023-05-03T16:45:37.718Z,31.57
2023-05-03T16:50:33.915Z,32.13
2023-05-03T16:55:28.379Z,32.74
2023-05-03T17:00:22.002Z,33.35
2023-05-03T17:05:15.421Z,34.22
2023-05-03T17:10:10.124Z,34.74
2023-05-03T17:15:05.113Z,35.03
2023-05-03T17:19:58.326Z,35.02
2023-05-03T17:24:51.755Z,35.37
2023-05-03T17:29:45.429Z,35.37
2023-05-03T17:34:40.548Z,35.83
2023-05-03T17:39:34.448Z,36.24
2023-05-03T17:44:28.021Z,39.13
2023-05-03T17:49:21.444Z,39.84
2023-05-03T17:54:16.061Z,40.07
2023-05-03T17:59:09.334Z,40.16
2023-05-03T18:04:02.640Z,40.87
2023-05-03T18:08:58.188Z,40.94
2023-05-03T18:13:52.803Z,41.31
2023-05-03T18:18:46.061Z,41.88
2023-05-03T18:23:44.656Z,44.16
2023-05-03T18:28:45.337Z,44.72
2023-05-03T18:33:45.240Z,44.19
2023-05-03T18:38:45.304Z,43.86
2023-05-03T18:43:40.130Z,44.38
2023-05-03T18:48:33.376Z,44.75
2023-05-03T18:53:31.794Z,45.90
2023-05-03T18:58:25.361Z,46.67
2023-05-03T19:03:18.726Z,47.51
2023-05-03T19:08:12.275Z,47.77
2023-05-03T19:13:07.452Z,47.53
2023-05-03T19:18:01.065Z,46.94
2023-05-03T19:22:54.382Z,46.66
2023-05-03T19:27:47.508Z,46.68
2023-05-03T19:32:44.027Z,48.67
2023-05-03T19:37:37.581Z,49.66
2023-05-03T19:42:31.298Z,50.92
2023-05-03T19:47:27.086Z,50.81
2023-05-03T19:52:21.750Z,51.75
2023-05-03T19:57:14.941Z,52.20
2023-05-03T20:02:14.833Z,53.87
2023-05-03T20:07:08.240Z,56.31
2023-05-03T20:12:02.810Z,56.04
2023-05-03T20:16:57.073Z,57.75
2023-05-03T20:21:54.763Z,57.02
2023-05-03T20:26:47.922Z,57.18
2023-05-03T20:31:42.618Z,57.67
2023-05-03T20:36:35.824Z,58.08
2023-05-03T20:41:28.966Z,59.52
2023-05-03T20:46:24.964Z,58.39
2023-05-03T20:51:19.546Z,58.95
2023-05-03T20:56:12.648Z,59.15
2023-05-03T21:01:07.041Z,59.15
2023-05-03T21:06:00.180Z,59.33
2023-05-03T21:10:55.194Z,60.03
2023-05-03T21:15:49.864Z,62.06
2023-05-03T21:20:43.108Z,64.30
2023-05-03T21:25:36.291Z,66.41
2023-05-03T21:30:30.799Z,69.06
2023-05-03T21:35:24.118Z,70.86
2023-05-03T21:40:17.654Z,71.74
2023-05-03T21:45:12.329Z,72.30
2023-05-03T21:50:11.119Z,72.30
2023-05-03T21:55:04.439Z,72.53
2023-05-03T21:59:58.478Z,72.16
2023-05-03T22:04:52.010Z,70.55
2023-05-03T22:09:48.856Z,71.42
2023-05-03T22:14:42.257Z,72.12
2023-05-03T22:19:39.060Z,72.64
2023-05-03T22:24:32.372Z,72.58
2023-05-03T22:29:28.728Z,73.17
2023-05-03T22:34:22.047Z,72.48
2023-05-03T22:39:15.863Z,72.35
2023-05-03T22:44:08.931Z,71.49
2023-05-03T22:49:04.019Z,71.95
2023-05-03T22:53:57.386Z,72.67
2023-05-03T22:58:50.536Z,73.54
2023-05-03T23:03:43.870Z,74.73
2023-05-03T23:08:38.536Z,75.25
2023-05-03T23:13:31.857Z,75.57
2023-05-03T23:18:25.079Z,75.78
2023-05-03T23:23:18.380Z,76.16
2023-05-03T23:28:12.846Z,76.18
2023-05-03T23:33:06.507Z,75.35
2023-05-03T23:38:00.213Z,75.01
2023-05-03T23:42:53.465Z,74.42
2023-05-03T23:47:48.023Z,74.05
2023-05-03T23:52:42.500Z,73.45
2023-05-03T23:57:36.107Z,73.45
